createdAt,value
2022-10-08T00:00:54.504Z,4.00
2022-10-08T00:01:54.567Z,4.00
2022-10-08T00:02:54.495Z,4.00
2022-10-08T00:03:54.630Z,4.00
2022-10-08T00:04:54.479Z,4.00
2022-10-08T00:05:54.473Z,4.00
2022-10-08T00:06:54.459Z,4.00
2022-10-08T00:07:54.457Z,4.00
2022-10-08T00:08:54.447Z,4.00
2022-10-08T00:09:54.437Z,4.00
2022-10-08T00:10:54.428Z,4.00
2022-10-08T00:11:54.424Z,4.00
2022-10-08T00:12:54.413Z,4.00
2022-10-08T00:13:54.408Z,4.00
2022-10-08T00:14:54.396Z,4.00
2022-10-08T00:15:54.423Z,4.00
2022-10-08T00:16:54.377Z,4.00
2022-10-08T00:17:54.375Z,4.00
2022-10-08T00:18:54.362Z,4.00
2022-10-08T00:19:54.361Z,4.00
2022-10-08T00:20:54.347Z,4.00
2022-10-08T00:21:54.341Z,4.00
2022-10-08T00:22:54.332Z,4.00
2022-10-08T00:23:54.321Z,4.00
2022-10-08T00:24:54.318Z,4.00
2022-10-08T00:25:54.304Z,4.00
2022-10-08T00:26:54.296Z,4.00
2022-10-08T00:27:54.291Z,4.00
2022-10-08T00:28:54.281Z,4.00
2022-10-08T00:29:54.278Z,4.00
2022-10-08T00:30:54.271Z,4.00
2022-10-08T00:31:54.298Z,4.00
2022-10-08T00:32:59.062Z,4.00
2022-10-08T00:33:54.251Z,4.00
2022-10-08T00:34:54.338Z,4.00
2022-10-08T00:35:54.226Z,4.00
2022-10-08T00:36:54.223Z,4.00
2022-10-08T00:37:54.213Z,4.00
2022-10-08T00:38:54.203Z,4.00
2022-10-08T00:39:54.192Z,4.00
2022-10-08T00:40:54.182Z,4.00
2022-10-08T00:41:54.175Z,4.00
2022-10-08T00:42:54.169Z,4.00
2022-10-08T00:43:54.165Z,4.00
2022-10-08T00:44:54.406Z,4.00
2022-10-08T00:45:54.185Z,4.00
2022-10-08T00:46:54.136Z,4.00
2022-10-08T00:47:54.126Z,4.00
2022-10-08T00:48:54.121Z,4.00
2022-10-08T00:49:54.106Z,4.00
2022-10-08T00:50:54.106Z,4.00
2022-10-08T00:51:54.095Z,4.00
2022-10-08T00:52:54.088Z,4.00
2022-10-08T00:53:54.076Z,4.00
2022-10-08T00:54:54.071Z,4.00
2022-10-08T00:55:54.062Z,4.00
2022-10-08T00:56:54.056Z,4.00
2022-10-08T00:57:54.040Z,4.00
2022-10-08T00:58:54.035Z,4.00
2022-10-08T00:59:54.140Z,4.00
2022-10-08T01:00:54.103Z,4.00
2022-10-08T01:01:54.048Z,4.00
2022-10-08T01:02:54.006Z,4.00
2022-10-08T01:03:53.988Z,4.00
2022-10-08T01:04:53.982Z,4.00
2022-10-08T01:05:53.974Z,4.00
2022-10-08T01:06:53.969Z,4.00
2022-10-08T01:07:53.954Z,4.00
2022-10-08T01:08:53.949Z,4.00
2022-10-08T01:09:54.040Z,4.00
2022-10-08T01:10:53.928Z,4.00
2022-10-08T01:11:53.922Z,4.00
2022-10-08T01:12:53.917Z,4.00
2022-10-08T01:13:53.908Z,4.00
2022-10-08T01:14:53.899Z,4.00
2022-10-08T01:15:53.911Z,4.00
2022-10-08T01:16:53.877Z,4.00
2022-10-08T01:17:53.867Z,4.00
2022-10-08T01:18:53.862Z,4.00
2022-10-08T01:19:53.948Z,4.00
2022-10-08T01:20:53.841Z,4.00
2022-10-08T01:21:53.829Z,4.00
2022-10-08T01:22:53.825Z,4.00
2022-10-08T01:23:53.815Z,4.00
2022-10-08T01:24:53.806Z,4.00
2022-10-08T01:25:53.799Z,4.00
2022-10-08T01:26:53.785Z,4.00
2022-10-08T01:27:53.783Z,4.00
2022-10-08T01:28:53.772Z,4.00
2022-10-08T01:29:53.857Z,4.00
2022-10-08T01:30:53.753Z,4.00
2022-10-08T01:31:53.764Z,4.00
2022-10-08T01:32:53.736Z,4.00
2022-10-08T01:33:53.723Z,4.00
2022-10-08T01:34:53.717Z,4.00
2022-10-08T01:35:53.713Z,4.00
2022-10-08T01:36:53.699Z,4.00
2022-10-08T01:37:53.695Z,4.00
2022-10-08T01:38:53.682Z,4.00
2022-10-08T01:39:53.673Z,4.00
2022-10-08T01:40:53.760Z,4.00
2022-10-08T01:41:53.653Z,4.00
2022-10-08T01:42:53.644Z,4.00
2022-10-08T01:43:53.634Z,4.00
2022-10-08T01:44:53.630Z,4.00
2022-10-08T01:45:53.656Z,4.00
2022-10-08T01:46:53.607Z,4.00
2022-10-08T01:47:53.601Z,4.00
2022-10-08T01:48:53.592Z,4.00
2022-10-08T01:49:53.582Z,4.00
2022-10-08T01:50:53.576Z,4.00
2022-10-08T01:51:53.569Z,4.00
2022-10-08T01:52:53.556Z,4.00
2022-10-08T01:53:53.545Z,4.00
2022-10-08T01:54:53.533Z,4.00
2022-10-08T01:55:53.531Z,4.00
2022-10-08T01:56:53.517Z,4.00
2022-10-08T01:57:53.609Z,4.00
2022-10-08T01:58:53.504Z,4.00
2022-10-08T01:59:53.493Z,4.00
2022-10-08T02:00:53.494Z,4.00
2022-10-08T02:01:53.569Z,4.00
2022-10-08T02:02:53.465Z,4.00
2022-10-08T02:03:53.556Z,4.00
2022-10-08T02:04:53.458Z,4.00
2022-10-08T02:05:53.445Z,4.00
2022-10-08T02:06:53.430Z,4.00
2022-10-08T02:07:53.421Z,4.00
2022-10-08T02:08:53.411Z,4.00
2022-10-08T02:09:53.399Z,4.00
2022-10-08T02:10:53.389Z,4.00
2022-10-08T02:11:53.386Z,4.00
2022-10-08T02:12:53.362Z,4.00
2022-10-08T02:13:53.357Z,4.00
2022-10-08T02:14:53.449Z,4.00
2022-10-08T02:15:53.335Z,4.00
2022-10-08T02:16:53.451Z,4.00
2022-10-08T02:17:53.322Z,4.00
2022-10-08T02:18:53.314Z,4.00
2022-10-08T02:19:53.304Z,4.00
2022-10-08T02:20:53.285Z,4.00
2022-10-08T02:21:53.289Z,4.00
2022-10-08T02:22:53.271Z,4.00
2022-10-08T02:23:53.262Z,4.00
2022-10-08T02:24:53.353Z,4.00
2022-10-08T02:25:53.239Z,4.00
2022-10-08T02:26:53.233Z,4.00
2022-10-08T02:27:53.225Z,4.00
2022-10-08T02:28:53.211Z,4.00
2022-10-08T02:29:53.199Z,4.00
2022-10-08T02:30:53.191Z,4.00
2022-10-08T02:31:53.374Z,4.00
2022-10-08T02:32:53.176Z,4.00
2022-10-08T02:33:53.164Z,4.00
2022-10-08T02:34:53.154Z,4.00
2022-10-08T02:35:53.145Z,4.00
2022-10-08T02:36:53.133Z,4.00
2022-10-08T02:37:53.126Z,4.00
2022-10-08T02:38:53.117Z,4.00
2022-10-08T02:39:53.209Z,4.00
2022-10-08T02:40:53.093Z,4.00
2022-10-08T02:41:53.084Z,4.00
2022-10-08T02:42:53.074Z,4.00
2022-10-08T02:43:53.066Z,4.00
2022-10-08T02:44:53.056Z,4.00
2022-10-08T02:45:53.107Z,4.00
2022-10-08T02:46:53.033Z,4.00
2022-10-08T02:47:53.030Z,4.00
2022-10-08T02:48:53.012Z,4.00
2022-10-08T02:49:53.109Z,4.00
2022-10-08T02:50:52.991Z,4.00
2022-10-08T02:51:53.531Z,4.00
2022-10-08T02:52:52.975Z,4.00
2022-10-08T02:53:52.965Z,4.00
2022-10-08T02:54:52.956Z,4.00
2022-10-08T02:55:52.943Z,4.00
2022-10-08T02:56:52.929Z,4.00
2022-10-08T02:57:52.923Z,4.00
2022-10-08T02:58:52.913Z,4.00
2022-10-08T02:59:52.904Z,4.00
2022-10-08T03:00:52.942Z,4.00
2022-10-08T03:01:52.900Z,4.00
2022-10-08T03:02:52.911Z,4.00
2022-10-08T03:03:52.866Z,4.00
2022-10-08T03:04:52.849Z,4.00
2022-10-08T03:05:52.845Z,4.00
2022-10-08T03:06:52.835Z,4.00
2022-10-08T03:07:52.822Z,4.00
2022-10-08T03:08:52.812Z,4.00
2022-10-08T03:09:52.803Z,4.00
2022-10-08T03:10:52.795Z,4.00
2022-10-08T03:11:52.789Z,4.00
2022-10-08T03:12:52.772Z,4.00
2022-10-08T03:13:52.761Z,4.00
2022-10-08T03:14:52.748Z,4.00
2022-10-08T03:15:52.745Z,4.00
2022-10-08T03:16:52.845Z,4.00
2022-10-08T03:17:52.722Z,4.00
2022-10-08T03:18:52.710Z,4.00
2022-10-08T03:19:52.702Z,4.00
2022-10-08T03:20:52.693Z,4.00
2022-10-08T03:21:52.682Z,4.00
2022-10-08T03:22:52.670Z,4.00
2022-10-08T03:23:52.662Z,4.00
2022-10-08T03:24:56.598Z,4.00
2022-10-08T03:25:52.640Z,4.00
2022-10-08T03:26:52.633Z,4.00
2022-10-08T03:27:52.630Z,4.00
2022-10-08T03:28:52.608Z,4.00
2022-10-08T03:29:52.606Z,4.00
2022-10-08T03:30:52.640Z,4.00
2022-10-08T03:31:52.683Z,4.00
2022-10-08T03:32:52.572Z,4.00
2022-10-08T03:33:52.559Z,4.00
2022-10-08T03:34:52.549Z,4.00
2022-10-08T03:35:52.537Z,4.00
2022-10-08T03:36:52.527Z,4.00
2022-10-08T03:37:52.519Z,4.00
2022-10-08T03:38:52.511Z,4.00
2022-10-08T03:39:52.503Z,4.00
2022-10-08T03:40:52.490Z,4.00
2022-10-08T03:41:52.482Z,4.00
2022-10-08T03:42:52.467Z,4.00
2022-10-08T03:43:52.461Z,4.00
2022-10-08T03:44:52.445Z,4.00
2022-10-08T03:45:52.494Z,4.00
2022-10-08T03:46:52.430Z,4.00
2022-10-08T03:47:52.514Z,4.00
2022-10-08T03:48:52.410Z,4.00
2022-10-08T03:49:52.392Z,4.00
2022-10-08T03:50:52.383Z,4.00
2022-10-08T03:51:52.371Z,4.00
2022-10-08T03:52:52.367Z,4.00
2022-10-08T03:53:52.353Z,4.00
2022-10-08T03:54:52.343Z,4.00
2022-10-08T03:55:52.330Z,4.00
2022-10-08T03:56:52.326Z,4.00
2022-10-08T03:57:52.318Z,4.00
2022-10-08T03:58:52.308Z,4.00
2022-10-08T03:59:52.294Z,4.00
2022-10-08T04:00:52.283Z,4.00
2022-10-08T04:01:52.322Z,4.00
2022-10-08T04:02:52.333Z,4.00
2022-10-08T04:03:52.249Z,4.00
2022-10-08T04:04:52.243Z,4.00
2022-10-08T04:05:52.238Z,4.00
2022-10-08T04:06:52.227Z,4.00
2022-10-08T04:07:52.213Z,4.00
2022-10-08T04:08:52.203Z,4.00
2022-10-08T04:09:52.191Z,4.00
2022-10-08T04:10:52.179Z,4.00
2022-10-08T04:11:52.168Z,4.00
2022-10-08T04:12:52.255Z,4.00
2022-10-08T04:13:52.155Z,4.00
2022-10-08T04:14:52.138Z,4.00
2022-10-08T04:15:52.163Z,4.00
2022-10-08T04:16:52.120Z,4.00
2022-10-08T04:17:52.107Z,4.00
2022-10-08T04:18:52.100Z,4.00
2022-10-08T04:19:52.095Z,4.00
2022-10-08T04:20:52.080Z,4.00
2022-10-08T04:21:52.071Z,4.00
2022-10-08T04:22:52.160Z,4.00
2022-10-08T04:23:52.054Z,4.00
2022-10-08T04:24:52.036Z,4.00
2022-10-08T04:25:52.039Z,4.00
2022-10-08T04:26:52.018Z,4.00
2022-10-08T04:27:52.014Z,4.00
2022-10-08T04:28:52.031Z,4.00
2022-10-08T04:29:51.989Z,4.00
2022-10-08T04:30:52.003Z,4.00
2022-10-08T04:31:51.970Z,4.00
2022-10-08T04:32:51.960Z,4.00
2022-10-08T04:33:51.953Z,4.00
2022-10-08T04:34:51.935Z,4.00
2022-10-08T05:02:40.668Z,4.00
2022-10-08T05:02:48.493Z,4.00
2022-10-08T05:03:48.210Z,4.00
2022-10-08T05:04:48.402Z,4.00
2022-10-08T05:05:48.197Z,4.00
2022-10-08T05:06:48.183Z,4.00
2022-10-08T05:07:48.169Z,4.00
2022-10-08T05:08:48.162Z,4.00
2022-10-08T05:09:48.256Z,4.00
2022-10-08T05:10:48.140Z,4.00
2022-10-08T05:11:48.133Z,4.00
2022-10-08T05:12:48.428Z,4.00
2022-10-08T05:13:48.112Z,4.00
2022-10-08T05:14:48.202Z,4.00
2022-10-08T05:15:48.111Z,4.00
2022-10-08T05:16:48.080Z,4.00
2022-10-08T05:17:48.069Z,4.00
2022-10-08T05:18:48.057Z,4.00
2022-10-08T05:19:48.152Z,4.00
2022-10-08T05:20:48.034Z,4.00
2022-10-08T05:21:48.026Z,4.00
2022-10-08T05:22:48.223Z,4.00
2022-10-08T05:23:48.005Z,4.00
2022-10-08T05:24:48.094Z,4.00
2022-10-08T05:25:47.985Z,4.00
2022-10-08T05:27:03.187Z,4.00
2022-10-08T05:27:47.961Z,4.00
2022-10-08T05:28:48.040Z,4.00
2022-10-08T05:29:48.040Z,4.00
2022-10-08T05:30:47.999Z,4.00
2022-10-08T05:31:47.939Z,4.00
2022-10-08T05:32:48.216Z,4.00
2022-10-08T05:33:47.900Z,4.00
2022-10-08T05:34:47.991Z,4.00
2022-10-08T05:35:47.876Z,4.00
2022-10-08T05:36:47.867Z,4.00
2022-10-08T05:37:47.852Z,4.00
2022-10-08T05:38:47.847Z,4.00
2022-10-08T05:39:47.932Z,4.00
2022-10-08T05:40:47.823Z,4.00
2022-10-08T05:43:31.433Z,4.00
2022-10-08T05:44:33.828Z,4.00
2022-10-08T05:45:31.508Z,4.00
2022-10-08T05:46:31.488Z,4.00
2022-10-08T05:47:31.386Z,4.00
2022-10-08T05:48:31.370Z,4.00
2022-10-08T05:49:31.366Z,4.00
2022-10-08T05:50:31.345Z,4.00
2022-10-08T05:51:31.326Z,4.00
2022-10-08T05:52:31.318Z,4.00
2022-10-08T05:53:31.301Z,4.00
2022-10-08T05:54:31.295Z,4.00
2022-10-08T05:55:31.282Z,4.00
2022-10-08T05:56:31.269Z,4.00
2022-10-08T05:57:31.267Z,4.00
2022-10-08T05:58:31.247Z,4.00
2022-10-08T05:59:31.239Z,4.00
2022-10-08T06:00:31.327Z,4.00
2022-10-08T06:01:31.217Z,4.00
2022-10-08T06:02:31.238Z,4.00
2022-10-08T06:03:31.192Z,4.00
2022-10-08T06:04:31.253Z,4.00
2022-10-08T06:05:31.169Z,4.00
2022-10-08T06:06:31.161Z,4.00
2022-10-08T06:07:31.151Z,4.00
2022-10-08T06:08:31.139Z,4.00
2022-10-08T06:09:31.128Z,4.00
2022-10-08T06:10:31.116Z,4.00
2022-10-08T06:11:31.110Z,4.00
2022-10-08T06:12:31.092Z,4.00
2022-10-08T06:13:31.082Z,4.00
2022-10-08T06:14:31.078Z,4.00
2022-10-08T06:15:31.162Z,4.00
2022-10-08T06:16:31.098Z,4.00
2022-10-08T06:17:31.047Z,4.00
2022-10-08T06:18:31.031Z,4.00
2022-10-08T06:19:31.022Z,4.00
2022-10-08T06:20:32.166Z,4.00
2022-10-08T06:21:31.006Z,4.00
2022-10-08T06:22:30.989Z,4.00
2022-10-08T06:23:30.980Z,4.00
2022-10-08T06:24:30.964Z,4.00
2022-10-08T06:25:30.962Z,4.00
2022-10-08T06:26:35.353Z,4.00
2022-10-08T06:27:30.942Z,4.00
2022-10-08T06:28:30.995Z,4.00
2022-10-08T06:29:30.917Z,4.00
2022-10-08T06:30:31.007Z,4.00
2022-10-08T06:31:30.930Z,4.00
2022-10-08T06:32:30.888Z,4.00
2022-10-08T06:33:30.880Z,4.00
2022-10-08T06:34:30.858Z,4.00
2022-10-08T06:35:30.853Z,4.00
2022-10-08T06:36:30.844Z,4.00
2022-10-08T06:37:30.834Z,4.00
2022-10-08T06:38:30.821Z,4.00
2022-10-08T06:39:30.812Z,4.00
2022-10-08T06:40:30.901Z,4.00
2022-10-08T06:41:30.797Z,4.00
2022-10-08T06:42:30.782Z,4.00
2022-10-08T06:43:30.777Z,4.00
2022-10-08T06:44:30.763Z,4.00
2022-10-08T06:45:30.753Z,4.00
2022-10-08T06:46:30.780Z,4.00
2022-10-08T06:47:30.725Z,4.00
2022-10-08T06:48:30.714Z,4.00
2022-10-08T06:49:30.713Z,4.00
2022-10-08T06:50:30.702Z,4.00
2022-10-08T06:51:30.683Z,4.00
2022-10-08T06:52:30.679Z,4.00
2022-10-08T06:53:30.662Z,4.00
2022-10-08T06:54:30.654Z,4.00
2022-10-08T06:55:30.643Z,4.00
2022-10-08T06:56:30.739Z,4.00
2022-10-08T06:57:30.622Z,4.00
2022-10-08T06:58:30.611Z,4.00
2022-10-08T06:59:30.601Z,4.00
2022-10-08T07:00:30.588Z,4.00
2022-10-08T07:01:33.607Z,4.00
2022-10-08T07:02:30.645Z,4.00
2022-10-08T07:03:30.560Z,4.00
2022-10-08T07:04:30.551Z,4.00
2022-10-08T07:05:30.538Z,4.00
2022-10-08T07:06:30.527Z,4.00
2022-10-08T07:07:30.514Z,4.00
2022-10-08T07:08:30.505Z,4.00
2022-10-08T07:09:30.497Z,4.00
2022-10-08T07:10:33.676Z,4.00
2022-10-08T07:11:30.477Z,4.00
2022-10-08T07:12:30.563Z,4.00
2022-10-08T07:13:30.453Z,4.00
2022-10-08T07:14:30.444Z,4.00
2022-10-08T07:15:30.432Z,4.00
2022-10-08T07:16:30.500Z,4.00
2022-10-08T07:17:30.409Z,4.00
2022-10-08T07:18:30.401Z,4.00
2022-10-08T07:19:30.387Z,4.00
2022-10-08T07:20:30.376Z,4.00
2022-10-08T07:21:30.363Z,4.00
2022-10-08T07:22:30.359Z,4.00
2022-10-08T07:23:30.348Z,4.00
2022-10-08T07:24:30.334Z,4.00
2022-10-08T07:25:30.327Z,4.00
2022-10-08T07:26:30.312Z,4.00
2022-10-08T07:27:30.405Z,4.00
2022-10-08T07:28:30.368Z,4.00
2022-10-08T07:29:30.281Z,4.00
2022-10-08T07:30:30.268Z,4.00
2022-10-08T07:31:30.295Z,4.00
2022-10-08T07:32:30.250Z,4.00
2022-10-08T07:33:30.239Z,4.00
2022-10-08T07:34:30.225Z,4.00
2022-10-08T07:35:30.215Z,4.00
2022-10-08T07:36:30.204Z,4.00
2022-10-08T07:37:30.197Z,4.00
2022-10-08T07:38:30.181Z,4.00
2022-10-08T07:39:30.169Z,4.00
2022-10-08T07:40:30.162Z,4.00
2022-10-08T07:41:30.148Z,4.00
2022-10-08T07:42:30.236Z,4.00
2022-10-08T07:43:30.130Z,4.00
2022-10-08T07:44:30.115Z,4.00
2022-10-08T07:45:30.131Z,4.00
2022-10-08T07:46:30.090Z,4.00
2022-10-08T07:47:30.085Z,4.00
2022-10-08T07:48:33.851Z,4.00
2022-10-08T07:49:30.068Z,4.00
2022-10-08T07:50:30.052Z,4.00
2022-10-08T07:51:30.040Z,4.00
2022-10-08T07:52:30.028Z,4.00
2022-10-08T07:53:30.022Z,4.00
2022-10-08T07:54:30.001Z,4.00
2022-10-08T07:55:29.998Z,4.00
2022-10-08T07:56:29.987Z,4.00
2022-10-08T07:57:30.073Z,4.00
2022-10-08T07:58:29.964Z,4.00
2022-10-08T07:59:29.954Z,4.00
2022-10-08T08:00:29.943Z,4.00
2022-10-08T08:01:30.294Z,4.00
2022-10-08T08:02:29.947Z,4.00
2022-10-08T08:03:29.912Z,4.00
2022-10-08T08:04:29.894Z,4.00
2022-10-08T08:05:29.888Z,4.00
2022-10-08T08:06:29.874Z,4.00
2022-10-08T08:07:29.861Z,4.00
2022-10-08T08:08:29.854Z,4.00
2022-10-08T08:09:29.842Z,4.00
2022-10-08T08:10:29.838Z,4.00
2022-10-08T08:11:29.820Z,4.00
2022-10-08T08:12:29.905Z,4.00
2022-10-08T08:13:34.336Z,4.00
2022-10-08T08:14:29.790Z,4.00
2022-10-08T08:15:29.777Z,4.00
2022-10-08T08:16:29.849Z,4.00
2022-10-08T08:17:29.756Z,4.00
2022-10-08T08:18:29.749Z,4.00
2022-10-08T08:19:29.734Z,4.00
2022-10-08T08:20:29.718Z,8.00
2022-10-08T08:21:29.711Z,8.00
2022-10-08T08:22:29.696Z,8.00
2022-10-08T08:23:29.691Z,8.00
2022-10-08T08:24:29.680Z,8.00
2022-10-08T08:25:29.668Z,8.00
2022-10-08T08:26:29.655Z,8.00
2022-10-08T08:27:29.646Z,4.00
2022-10-08T08:28:29.762Z,4.00
2022-10-08T08:29:29.625Z,4.00
2022-10-08T08:30:29.613Z,4.00
2022-10-08T08:31:29.704Z,8.00
2022-10-08T08:32:29.584Z,8.00
2022-10-08T08:33:29.580Z,4.00
2022-10-08T08:34:29.667Z,4.00
2022-10-08T08:35:29.556Z,8.00
2022-10-08T08:36:29.546Z,8.00
2022-10-08T08:37:29.535Z,8.00
2022-10-08T08:38:29.521Z,8.00
2022-10-08T08:39:29.619Z,8.00
2022-10-08T08:40:29.497Z,8.00
2022-10-08T08:41:29.494Z,8.00
2022-10-08T08:42:29.484Z,8.00
2022-10-08T08:43:29.467Z,12.00
2022-10-08T08:44:29.559Z,8.00
2022-10-08T08:45:46.003Z,8.00
2022-10-08T08:46:29.510Z,12.00
2022-10-08T08:47:29.425Z,16.00
2022-10-08T08:48:29.410Z,16.00
2022-10-08T08:49:29.504Z,12.00
2022-10-08T08:50:29.386Z,12.00
2022-10-08T08:51:29.379Z,16.00
2022-10-08T08:52:29.362Z,16.00
2022-10-08T08:53:29.362Z,20.00
2022-10-08T08:54:29.447Z,20.00
2022-10-08T08:55:29.333Z,20.00
2022-10-08T08:56:29.321Z,20.00
2022-10-08T08:57:29.314Z,24.00
2022-10-08T08:58:29.304Z,24.00
2022-10-08T08:59:29.395Z,28.00
2022-10-08T09:00:29.278Z,32.00
2022-10-08T09:01:29.292Z,36.00
2022-10-08T09:02:29.252Z,40.00
2022-10-08T09:03:29.255Z,44.00
2022-10-08T09:04:29.237Z,48.00
2022-10-08T09:05:29.285Z,52.00
2022-10-08T09:06:29.218Z,64.00
2022-10-08T09:07:29.199Z,68.00
2022-10-08T09:08:29.187Z,72.00
2022-10-08T09:09:29.180Z,52.00
2022-10-08T09:10:29.168Z,52.00
2022-10-08T09:11:29.162Z,60.00
2022-10-08T09:12:29.146Z,64.00
2022-10-08T09:13:29.136Z,72.00
2022-10-08T09:14:29.131Z,76.00
2022-10-08T09:15:29.113Z,80.00
2022-10-08T09:16:29.157Z,100.00
2022-10-08T09:17:29.091Z,132.00
2022-10-08T09:18:29.082Z,136.00
2022-10-08T09:19:29.176Z,124.00
2022-10-08T09:20:29.055Z,104.00
2022-10-08T09:21:29.049Z,96.00
2022-10-08T09:22:29.041Z,88.00
2022-10-08T09:23:29.030Z,96.00
2022-10-08T09:24:29.017Z,88.00
2022-10-08T09:25:29.005Z,92.00
2022-10-08T09:26:28.999Z,96.00
2022-10-08T09:27:28.988Z,96.00
2022-10-08T09:28:29.019Z,84.00
2022-10-08T09:29:28.965Z,72.00
2022-10-08T09:30:29.022Z,72.00
2022-10-08T09:31:29.006Z,84.00
2022-10-08T09:32:28.938Z,104.00
2022-10-08T09:33:28.923Z,92.00
2022-10-08T09:34:29.011Z,104.00
2022-10-08T09:35:28.900Z,112.00
2022-10-08T09:36:28.886Z,140.00
2022-10-08T09:37:28.887Z,124.00
2022-10-08T09:38:28.867Z,196.00
2022-10-08T09:39:28.860Z,232.00
2022-10-08T09:40:28.847Z,232.00
2022-10-08T09:41:28.835Z,204.00
2022-10-08T09:42:28.822Z,200.00
2022-10-08T09:43:28.818Z,208.00
2022-10-08T09:44:28.904Z,228.00
2022-10-08T09:45:28.794Z,240.00
2022-10-08T09:46:28.911Z,248.00
2022-10-08T09:47:28.774Z,244.00
2022-10-08T09:48:28.762Z,252.00
2022-10-08T09:49:28.755Z,252.00
2022-10-08T09:50:28.741Z,248.00
2022-10-08T09:51:28.729Z,236.00
2022-10-08T09:52:28.714Z,240.00
2022-10-08T09:53:28.706Z,260.00
2022-10-08T09:54:28.697Z,256.00
2022-10-08T09:55:28.688Z,276.00
2022-10-08T09:56:28.676Z,328.00
2022-10-08T09:57:28.663Z,300.00
2022-10-08T09:58:28.657Z,296.00
2022-10-08T09:59:28.644Z,284.00
2022-10-08T10:00:28.638Z,264.00
2022-10-08T10:01:28.754Z,264.00
2022-10-08T10:02:28.615Z,252.00
2022-10-08T10:03:28.641Z,280.00
2022-10-08T10:04:28.597Z,288.00
2022-10-08T10:05:28.582Z,268.00
2022-10-08T10:06:28.582Z,268.00
2022-10-08T10:07:28.561Z,244.00
2022-10-08T10:08:28.552Z,244.00
2022-10-08T10:09:28.543Z,272.00
2022-10-08T10:10:28.533Z,316.00
2022-10-08T10:11:28.518Z,416.00
2022-10-08T10:12:28.513Z,452.00
2022-10-08T10:13:28.501Z,432.00
2022-10-08T10:14:28.492Z,416.00
2022-10-08T10:15:28.480Z,420.00
2022-10-08T10:16:28.512Z,416.00
2022-10-08T10:17:28.563Z,420.00
2022-10-08T10:18:28.453Z,428.00
2022-10-08T10:19:28.443Z,448.00
2022-10-08T10:20:28.433Z,448.00
2022-10-08T10:21:28.421Z,492.00
2022-10-08T10:22:28.408Z,492.00
2022-10-08T10:23:28.399Z,428.00
2022-10-08T10:24:28.394Z,420.00
2022-10-08T10:25:28.383Z,392.00
2022-10-08T10:26:28.366Z,384.00
2022-10-08T10:27:28.462Z,396.00
2022-10-08T10:28:28.395Z,400.00
2022-10-08T10:29:28.341Z,300.00
2022-10-08T10:30:28.327Z,252.00
2022-10-08T10:31:28.322Z,256.00
2022-10-08T10:32:31.876Z,304.00
2022-10-08T10:33:28.300Z,332.00
2022-10-08T10:34:28.289Z,284.00
2022-10-08T10:35:28.282Z,304.00
2022-10-08T10:36:28.275Z,392.00
2022-10-08T10:37:28.359Z,468.00
2022-10-08T10:38:28.252Z,500.00
2022-10-08T10:39:28.237Z,500.00
2022-10-08T10:40:28.234Z,468.00
2022-10-08T10:41:28.219Z,488.00
2022-10-08T10:42:28.215Z,540.00
2022-10-08T10:43:28.205Z,532.00
2022-10-08T10:44:28.188Z,492.00
2022-10-08T10:45:28.181Z,512.00
2022-10-08T10:46:28.194Z,476.00
2022-10-08T10:47:31.830Z,436.00
2022-10-08T10:48:28.154Z,440.00
2022-10-08T10:49:28.142Z,444.00
2022-10-08T10:50:28.136Z,508.00
2022-10-08T10:51:28.124Z,544.00
2022-10-08T10:52:28.216Z,516.00
2022-10-08T10:53:28.102Z,516.00
2022-10-08T10:54:28.096Z,552.00
2022-10-08T10:55:28.085Z,580.00
2022-10-08T10:56:28.078Z,588.00
2022-10-08T10:57:28.065Z,584.00
2022-10-08T10:58:28.060Z,524.00
2022-10-08T10:59:28.048Z,528.00
2022-10-08T11:00:28.034Z,652.00
2022-10-08T11:01:28.069Z,640.00
2022-10-08T11:02:28.183Z,628.00
2022-10-08T11:03:28.010Z,588.00
2022-10-08T11:04:28.000Z,556.00
2022-10-08T11:05:27.991Z,500.00
2022-10-08T11:06:27.976Z,580.00
2022-10-08T11:07:27.969Z,644.00
2022-10-08T11:08:27.959Z,532.00
2022-10-08T11:09:27.949Z,560.00
2022-10-08T11:10:27.943Z,588.00
2022-10-08T11:11:32.910Z,428.00
2022-10-08T11:12:28.020Z,388.00
2022-10-08T11:13:27.914Z,428.00
2022-10-08T11:14:27.901Z,576.00
2022-10-08T11:15:27.892Z,560.00
2022-10-08T11:16:27.883Z,592.00
2022-10-08T11:17:27.872Z,632.00
2022-10-08T11:18:27.863Z,772.00
2022-10-08T11:19:27.853Z,740.00
2022-10-08T11:20:27.845Z,704.00
2022-10-08T11:21:27.836Z,648.00
2022-10-08T11:22:27.827Z,612.00
2022-10-08T11:23:27.818Z,572.00
2022-10-08T11:24:27.805Z,572.00
2022-10-08T11:25:27.795Z,576.00
2022-10-08T11:26:27.787Z,596.00
2022-10-08T11:27:27.779Z,572.00
2022-10-08T11:28:27.937Z,596.00
2022-10-08T11:29:27.762Z,620.00
2022-10-08T11:30:27.751Z,632.00
2022-10-08T11:31:27.811Z,672.00
2022-10-08T11:32:27.736Z,668.00
2022-10-08T11:33:27.725Z,692.00
2022-10-08T11:34:27.713Z,804.00
2022-10-08T11:35:27.710Z,660.00
2022-10-08T11:36:32.657Z,712.00
2022-10-08T11:37:27.683Z,620.00
2022-10-08T11:38:27.680Z,600.00
2022-10-08T11:39:27.667Z,504.00
2022-10-08T11:40:27.659Z,780.00
2022-10-08T11:41:27.646Z,852.00
2022-10-08T11:42:27.646Z,836.00
2022-10-08T11:43:27.632Z,828.00
2022-10-08T11:44:27.627Z,940.00
2022-10-08T11:45:27.714Z,852.00
2022-10-08T11:46:27.632Z,656.00
2022-10-08T11:47:27.596Z,580.00
2022-10-08T11:48:27.591Z,624.00
2022-10-08T11:49:27.580Z,708.00
2022-10-08T11:50:27.570Z,592.00
2022-10-08T11:51:27.565Z,568.00
2022-10-08T11:52:27.555Z,796.00
2022-10-08T11:53:27.543Z,800.00
2022-10-08T11:54:27.540Z,872.00
2022-10-08T11:55:27.528Z,844.00
2022-10-08T11:56:27.618Z,768.00
2022-10-08T11:57:35.139Z,872.00
2022-10-08T11:58:27.497Z,636.00
2022-10-08T11:59:27.487Z,604.00
2022-10-08T12:00:27.485Z,616.00
2022-10-08T12:01:27.471Z,592.00
2022-10-08T12:02:27.539Z,524.00
2022-10-08T12:03:27.695Z,688.00
2022-10-08T12:04:27.450Z,732.00
2022-10-08T12:05:27.436Z,816.00
2022-10-08T12:06:27.434Z,720.00
2022-10-08T12:07:27.429Z,676.00
2022-10-08T12:08:27.417Z,648.00
2022-10-08T12:09:27.406Z,688.00
2022-10-08T12:10:27.396Z,584.00
2022-10-08T12:11:27.394Z,584.00
2022-10-08T12:12:27.386Z,840.00
2022-10-08T12:13:27.372Z,1304.00
2022-10-08T12:14:27.371Z,916.00
2022-10-08T12:15:27.357Z,1436.00
2022-10-08T12:16:27.405Z,1100.00
2022-10-08T12:17:27.337Z,1300.00
2022-10-08T12:18:27.335Z,1100.00
2022-10-08T12:19:27.324Z,1428.00
2022-10-08T12:20:27.316Z,1184.00
2022-10-08T12:21:27.309Z,1396.00
2022-10-08T12:22:27.301Z,1500.00
2022-10-08T12:23:27.293Z,836.00
2022-10-08T12:24:27.283Z,1200.00
2022-10-08T12:25:27.277Z,1220.00
2022-10-08T12:26:27.272Z,1024.00
2022-10-08T12:27:27.268Z,1612.00
2022-10-08T12:28:27.288Z,1600.00
2022-10-08T12:29:27.252Z,1424.00
2022-10-08T12:30:27.245Z,1684.00
2022-10-08T12:31:27.291Z,1648.00
2022-10-08T12:32:27.222Z,960.00
2022-10-08T12:33:27.216Z,1452.00
2022-10-08T12:34:27.215Z,1368.00
2022-10-08T12:35:27.207Z,920.00
2022-10-08T12:36:27.200Z,880.00
2022-10-08T12:37:27.185Z,928.00
2022-10-08T12:38:27.180Z,956.00
2022-10-08T12:39:27.177Z,1052.00
2022-10-08T12:40:27.172Z,1284.00
2022-10-08T12:41:27.165Z,1528.00
2022-10-08T12:42:27.161Z,1152.00
2022-10-08T12:43:27.150Z,836.00
2022-10-08T12:44:27.143Z,1072.00
2022-10-08T12:45:27.133Z,1180.00
2022-10-08T12:46:27.264Z,1708.00
2022-10-08T12:47:27.125Z,1956.00
2022-10-08T12:48:27.113Z,2060.00
2022-10-08T12:49:27.114Z,1856.00
2022-10-08T12:50:27.099Z,1648.00
2022-10-08T12:51:27.100Z,1204.00
2022-10-08T12:52:27.088Z,1472.00
2022-10-08T12:53:27.083Z,796.00
2022-10-08T12:54:27.075Z,916.00
2022-10-08T12:55:27.075Z,1472.00
2022-10-08T12:56:27.167Z,1052.00
2022-10-08T12:57:27.056Z,852.00
2022-10-08T12:58:27.052Z,784.00
2022-10-08T12:59:27.044Z,756.00
2022-10-08T13:00:27.039Z,1348.00
2022-10-08T13:01:27.124Z,1496.00
2022-10-08T13:02:27.021Z,1876.00
2022-10-08T13:03:27.019Z,1184.00
2022-10-08T13:04:27.016Z,1452.00
2022-10-08T13:05:27.005Z,852.00
2022-10-08T13:06:29.345Z,688.00
2022-10-08T13:07:27.000Z,780.00
2022-10-08T13:08:26.997Z,912.00
2022-10-08T13:09:26.978Z,888.00
2022-10-08T13:10:26.971Z,772.00
2022-10-08T13:11:26.967Z,796.00
2022-10-08T13:12:26.957Z,700.00
2022-10-08T13:13:26.951Z,1780.00
2022-10-08T13:14:26.942Z,1524.00
2022-10-08T13:15:26.942Z,1540.00
2022-10-08T13:16:27.109Z,1000.00
2022-10-08T13:17:26.920Z,1156.00
2022-10-08T13:18:26.919Z,1704.00
2022-10-08T13:19:26.911Z,1224.00
2022-10-08T13:20:26.906Z,1764.00
2022-10-08T13:21:26.905Z,856.00
2022-10-08T13:22:26.898Z,1292.00
2022-10-08T13:23:26.887Z,1792.00
2022-10-08T13:24:26.886Z,1716.00
2022-10-08T13:25:26.872Z,1832.00
2022-10-08T13:26:26.967Z,1836.00
2022-10-08T13:27:26.863Z,1936.00